Airfield :
LOGIN :

Register | Disclaimer

   EN    FR    IT 

 










Legend :    VFR   Marginal VFR   IFR   Intensive IFR   Very Intensive IFR
Visi :
Ceiling :
>= 8 km
>= 3000ft
5 to 8 km
1000 to 3000 ft
1500m to 5 km
500 to 1000 ft
800 to 1500m
200 to 500 ft
< 800m
< 200 ft
Symbols :   Thunderstorms  Fog  Heavy snow  Heavy precipitations  Wind > 20 kt
SIGMETs :     Misc.  Thunderstorms  Icing  Turbulence  Mountain Waves  Volcanic Ashes






- Airport Elevation : 13 ft
- IATA code : SNR


LFRZ - St-Nazaire

CURRENT METAR :
  • 170430Z AUTO 35003KT 2400 BR FEW001 SCT030 OVC054 02/02 Q1009 TEMPO 0300 FG VV///

EXPIRED METARs :
  • 170400Z AUTO 01002KT 0900 0800 R25/0900U FG VV/// 02/02 Q1009 TEMPO 0300 FG
  • 170330Z AUTO VRB02KT 1200 0750 R25/1400D BCFG FEW002 BKN031 BKN047 02/02 Q1009 TEMPO 0300 FG VV///
  • 170300Z AUTO 30003KT 5000 BR VV/// 03/03 Q1009 TEMPO 0300 FG
  • 170230Z AUTO 25002KT 0600 0300 R25/1300U FG NSC 01/01 Q1009 TEMPO 0300 FG VV///
  • 170200Z AUTO VRB01KT 0800 R25/1000U FG FEW002 BKN230 01/01 Q1009 TEMPO 0300 FG VV///
  • 170130Z AUTO VRB02KT 2200 R25/1400U BR NSC 02/02 Q1009 TEMPO 0300 FG VV///

TAF AMD TAF LFRZ
Valid from the 17 at 00:00 until the 18 at 00:00 UTC


170039Z 1700/1724 VRB03KT 2500 BR BKN040
PROB40
TEMPO 1700/1707 0300 FG VV///
BECMG 1708/1710 9999 NSW SCT006 BKN012
BECMG 1710/1712 BKN025
BECMG 1721/1724 2000 BR



MET'MAP, your aeronautical weather chart ! - Copyright ORBIFLY December 2007 - Disclaimer

ORBIFLY MET'MAP TEAM :

Programming & Development : Alexandra Zaïnal
Concept & Development : Baudouin d'Aumeries
Co-Development & Prog : Marc-Olivier Méhu
Technical & hardware support : Manuel Goepfert

Contact : metmap@orbifly.com




SOURCES & CREDITS :

   NOAA